Time;durP1;ratioP1;P1;durP2;ratioP2;P2;SDS_P1;SDS_P2;PMS_P1;PMS_P2;Temp;Humidity;BMP_temperature;BMP_pressure;BME280_temperature;BME280_humidity;BME280_pressure;Samples;Min_cycle;Max_cycle;Signal;HPM_P1;HPM_P2
2022/01/28 00:01:05;;;;;;;10.73;3.10;;;;;;;;;;5076548;28;20293;-76
2022/01/28 00:03:33;;;;;;;9.60;3.07;;;;;;;;;;5080507;28;20784;-76
2022/01/28 00:06:00;;;;;;;11.03;3.63;;;;;;;;;;5077943;28;20293;-76
2022/01/28 00:08:27;;;;;;;13.57;3.40;;;;;;;;;;5080295;28;20202;-76
2022/01/28 00:10:55;;;;;;;12.93;3.50;;;;;;;;;;5079324;28;20197;-76
2022/01/28 00:13:25;;;;;;;22.27;3.97;;;;;;;;;;5079413;28;20305;-76
2022/01/28 00:18:59;;;;;;;11.57;4.00;;;;;;;;;;5063593;28;20233;-76
2022/01/28 00:38:07;;;;;;;13.47;4.47;;;;;;;;;;5078969;28;20206;-76
2022/01/28 00:40:34;;;;;;;17.97;4.00;;;;;;;;;;5077897;28;20209;-76
2022/01/28 00:43:02;;;;;;;16.73;3.60;;;;;;;;;;5076054;28;20221;-76
2022/01/28 00:45:29;;;;;;;16.73;4.20;;;;;;;;;;5078093;28;20305;-76
2022/01/28 00:47:58;;;;;;;10.90;3.40;;;;;;;;;;5076450;28;20216;-76
2022/01/28 00:50:26;;;;;;;11.70;3.60;;;;;;;;;;5079053;28;20259;-76
2022/01/28 00:52:53;;;;;;;11.20;3.83;;;;;;;;;;5078322;28;20233;-76
2022/01/28 00:55:20;;;;;;;22.87;5.17;;;;;;;;;;5076611;28;20197;-76
2022/01/28 00:57:47;;;;;;;16.80;3.77;;;;;;;;;;5075816;28;20653;-75
2022/01/28 01:00:15;;;;;;;15.13;3.37;;;;;;;;;;5080720;28;20672;-75
2022/01/28 01:02:42;;;;;;;15.93;3.20;;;;;;;;;;5076709;28;20201;-75
2022/01/28 01:05:11;;;;;;;13.80;3.50;;;;;;;;;;5077866;28;20700;-76
2022/01/28 01:07:38;;;;;;;16.17;3.80;;;;;;;;;;5076119;28;20210;-76
2022/01/28 01:10:07;;;;;;;11.53;3.00;;;;;;;;;;5077371;28;20203;-76
2022/01/28 01:12:39;;;;;;;12.50;3.13;;;;;;;;;;5073015;28;20633;-76
2022/01/28 01:15:07;;;;;;;14.67;4.23;;;;;;;;;;5078564;28;20256;-76
2022/01/28 01:17:38;;;;;;;8.00;2.80;;;;;;;;;;5080216;28;20206;-76
2022/01/28 01:20:32;;;;;;;11.77;2.80;;;;;;;;;;5073858;28;20205;-76
2022/01/28 01:23:08;;;;;;;15.63;3.77;;;;;;;;;;5078602;28;20325;-76
2022/01/28 01:25:43;;;;;;;8.97;2.63;;;;;;;;;;5078813;28;20212;-76
2022/01/28 01:28:11;;;;;;;16.00;3.40;;;;;;;;;;5076566;28;20744;-76
2022/01/28 01:30:41;;;;;;;9.77;3.20;;;;;;;;;;5077125;28;20289;-76
2022/01/28 01:33:08;;;;;;;8.13;2.40;;;;;;;;;;5078217;28;20756;-75
2022/01/28 01:35:35;;;;;;;11.80;2.83;;;;;;;;;;5077201;28;20205;-75
2022/01/28 01:38:05;;;;;;;13.43;2.70;;;;;;;;;;5075960;28;20205;-75
2022/01/28 01:40:38;;;;;;;11.00;2.30;;;;;;;;;;5072269;28;20210;-75
2022/01/28 01:43:08;;;;;;;8.30;2.30;;;;;;;;;;5080493;28;20225;-76
2022/01/28 01:46:02;;;;;;;4.80;1.97;;;;;;;;;;5076143;28;20210;-76
2022/01/28 01:54:01;;;;;;;11.07;2.87;;;;;;;;;;5076469;28;20232;-76
2022/01/28 01:56:29;;;;;;;12.50;2.80;;;;;;;;;;5077506;28;20553;-75
2022/01/28 01:58:56;;;;;;;12.20;2.57;;;;;;;;;;5075981;28;20205;-76
2022/01/28 02:01:23;;;;;;;9.33;2.20;;;;;;;;;;5077088;28;20210;-76
2022/01/28 02:03:51;;;;;;;6.47;2.30;;;;;;;;;;5075506;28;20228;-76
2022/01/28 02:06:19;;;;;;;9.80;2.70;;;;;;;;;;5074729;28;20304;-76
2022/01/28 02:08:47;;;;;;;6.60;2.30;;;;;;;;;;5073528;28;20304;-76
2022/01/28 02:11:16;;;;;;;15.47;2.77;;;;;;;;;;5077660;28;20202;-76
2022/01/28 02:13:48;;;;;;;18.87;3.87;;;;;;;;;;5074250;28;20218;-76
2022/01/28 02:16:15;;;;;;;20.53;3.20;;;;;;;;;;5077159;28;20205;-76
2022/01/28 02:18:42;;;;;;;11.00;3.23;;;;;;;;;;5073827;28;20513;-76
2022/01/28 02:21:13;;;;;;;11.87;2.77;;;;;;;;;;5076687;28;20291;-77
2022/01/28 02:23:42;;;;;;;17.30;2.93;;;;;;;;;;5075178;28;20244;-76
2022/01/28 02:26:13;;;;;;;12.20;3.10;;;;;;;;;;5077515;28;20290;-75
2022/01/28 02:28:42;;;;;;;12.53;2.67;;;;;;;;;;5076380;28;20203;-77
2022/01/28 02:31:09;;;;;;;10.60;2.67;;;;;;;;;;5076706;28;20202;-77
2022/01/28 02:33:36;;;;;;;11.03;2.50;;;;;;;;;;5076582;28;20232;-76
2022/01/28 02:36:05;;;;;;;14.80;2.77;;;;;;;;;;5076349;28;20206;-75
2022/01/28 02:38:35;;;;;;;9.27;2.43;;;;;;;;;;5076246;28;20652;-77
2022/01/28 02:41:04;;;;;;;13.90;2.47;;;;;;;;;;5075926;28;20225;-76
2022/01/28 02:43:38;;;;;;;11.30;2.70;;;;;;;;;;5076032;28;20657;-77
2022/01/28 02:46:09;;;;;;;9.73;2.37;;;;;;;;;;5076984;28;20258;-76
2022/01/28 02:48:37;;;;;;;14.17;2.80;;;;;;;;;;5077524;28;20213;-75
2022/01/28 02:51:10;;;;;;;12.67;2.60;;;;;;;;;;5071845;28;20213;-76
2022/01/28 02:53:42;;;;;;;10.50;2.47;;;;;;;;;;5074833;28;20225;-76
2022/01/28 02:56:19;;;;;;;9.13;2.40;;;;;;;;;;5077174;28;20542;-76
2022/01/28 02:58:47;;;;;;;17.93;3.03;;;;;;;;;;5076236;28;20643;-76
2022/01/28 03:01:15;;;;;;;21.83;2.70;;;;;;;;;;5080701;28;20198;-75
2022/01/28 03:03:43;;;;;;;15.87;2.50;;;;;;;;;;5077694;28;20228;-76
2022/01/28 03:06:10;;;;;;;17.63;2.87;;;;;;;;;;5078874;28;20205;-75
2022/01/28 03:08:42;;;;;;;10.13;2.57;;;;;;;;;;5078679;28;20289;-76
2022/01/28 03:14:02;;;;;;;22.10;2.90;;;;;;;;;;5077132;28;20225;-76
2022/01/28 03:16:32;;;;;;;13.03;2.37;;;;;;;;;;5078732;28;20293;-76
2022/01/28 03:19:02;;;;;;;12.33;2.40;;;;;;;;;;5079005;28;20301;-76
2022/01/28 03:21:43;;;;;;;15.97;2.70;;;;;;;;;;5080047;28;20197;-76
2022/01/28 03:24:12;;;;;;;18.03;3.07;;;;;;;;;;5078074;28;20222;-76
2022/01/28 03:26:40;;;;;;;16.87;3.17;;;;;;;;;;5079568;28;20206;-76
2022/01/28 03:29:07;;;;;;;17.50;3.00;;;;;;;;;;5077365;28;21431;-76
2022/01/28 03:31:38;;;;;;;11.23;3.07;;;;;;;;;;5079709;28;20201;-76
2022/01/28 03:34:05;;;;;;;15.70;2.77;;;;;;;;;;5081333;28;20241;-76
2022/01/28 03:36:32;;;;;;;15.50;3.30;;;;;;;;;;5079009;28;20294;-76
2022/01/28 03:38:59;;;;;;;15.43;2.93;;;;;;;;;;5076451;28;20276;-76
2022/01/28 03:41:28;;;;;;;14.02;4.15;;;;;;;;;;5076731;28;20947;-76
2022/01/28 03:43:58;;;;;;;14.63;3.47;;;;;;;;;;5078872;28;20245;-76
2022/01/28 03:46:26;;;;;;;13.97;3.43;;;;;;;;;;5079492;28;20633;-75
2022/01/28 03:48:53;;;;;;;20.37;3.83;;;;;;;;;;5077281;28;20274;-75
2022/01/28 03:51:21;;;;;;;14.70;3.33;;;;;;;;;;5075462;28;20631;-75
2022/01/28 03:53:48;;;;;;;18.70;4.00;;;;;;;;;;5076233;28;20225;-75
2022/01/28 03:56:15;;;;;;;19.73;4.17;;;;;;;;;;5076029;28;20293;-76
2022/01/28 03:58:44;;;;;;;24.05;5.10;;;;;;;;;;5078036;28;20461;-75
2022/01/28 04:01:16;;;;;;;17.83;4.43;;;;;;;;;;5080242;28;20206;-76
2022/01/28 04:03:59;;;;;;;20.57;3.83;;;;;;;;;;5078503;28;20248;-76
2022/01/28 04:11:48;;;;;;;16.07;4.20;;;;;;;;;;5079008;28;20213;-76
2022/01/28 04:14:26;;;;;;;21.07;4.10;;;;;;;;;;5080336;28;20229;-76
2022/01/28 04:19:38;;;;;;;18.20;3.87;;;;;;;;;;5080342;28;20663;-76
2022/01/28 04:22:05;;;;;;;11.60;3.80;;;;;;;;;;5073779;28;20304;-76
2022/01/28 04:24:32;;;;;;;14.60;3.13;;;;;;;;;;5076657;28;20309;-75
2022/01/28 04:27:00;;;;;;;14.17;3.83;;;;;;;;;;5080729;28;20233;-76
2022/01/28 04:29:28;;;;;;;14.27;4.20;;;;;;;;;;5073174;28;20201;-76
2022/01/28 04:31:55;;;;;;;15.10;3.70;;;;;;;;;;5076707;28;20206;-76
2022/01/28 04:34:24;;;;;;;13.43;4.00;;;;;;;;;;5075269;28;20558;-76
2022/01/28 04:37:00;;;;;;;15.77;3.23;;;;;;;;;;5076817;28;20256;-76
2022/01/28 04:39:34;;;;;;;16.17;4.00;;;;;;;;;;5076821;28;20204;-76
2022/01/28 04:42:10;;;;;;;13.70;3.80;;;;;;;;;;5077175;28;20588;-76
2022/01/28 04:44:49;;;;;;;14.97;4.23;;;;;;;;;;5078771;28;20745;-76
2022/01/28 04:47:22;;;;;;;17.93;4.17;;;;;;;;;;5075811;28;20205;-76
2022/01/28 04:49:59;;;;;;;19.03;4.00;;;;;;;;;;5079554;28;20585;-76
2022/01/28 04:52:51;;;;;;;21.43;4.10;;;;;;;;;;5076430;28;20580;-75
2022/01/28 04:55:37;;;;;;;20.10;3.97;;;;;;;;;;5078010;28;20202;-75
2022/01/28 04:58:17;;;;;;;12.83;3.70;;;;;;;;;;5078419;28;20197;-76
2022/01/28 05:00:56;;;;;;;12.90;3.83;;;;;;;;;;5076366;28;20686;-75
2022/01/28 05:09:33;;;;;;;18.77;4.03;;;;;;;;;;5078697;28;20720;-75
2022/01/28 05:26:00;;;;;;;12.90;3.83;;;;;;;;;;5076058;28;20216;-75
2022/01/28 05:28:27;;;;;;;21.83;4.00;;;;;;;;;;5079178;28;20229;-76
2022/01/28 05:30:55;;;;;;;11.80;3.63;;;;;;;;;;5076243;28;20624;-76
2022/01/28 05:33:23;;;;;;;17.90;3.67;;;;;;;;;;5076425;28;20225;-76
2022/01/28 05:35:50;;;;;;;15.70;3.90;;;;;;;;;;5077110;28;20684;-76
2022/01/28 05:38:17;;;;;;;16.70;4.00;;;;;;;;;;5075328;28;20201;-75
2022/01/28 05:40:45;;;;;;;17.70;3.67;;;;;;;;;;5079074;28;20202;-76
2022/01/28 05:43:12;;;;;;;15.80;3.27;;;;;;;;;;5075429;28;20679;-77
2022/01/28 05:45:40;;;;;;;12.03;2.63;;;;;;;;;;5079848;28;20316;-76
2022/01/28 05:48:07;;;;;;;8.67;2.50;;;;;;;;;;5080405;28;20293;-76
2022/01/28 05:50:36;;;;;;;9.97;2.57;;;;;;;;;;5076623;28;20280;-77
2022/01/28 05:53:03;;;;;;;10.70;2.73;;;;;;;;;;5082483;28;20226;-77
2022/01/28 05:55:31;;;;;;;14.77;2.87;;;;;;;;;;5076884;28;20210;-75
2022/01/28 05:57:58;;;;;;;12.03;2.33;;;;;;;;;;5077154;28;20292;-76
2022/01/28 06:00:25;;;;;;;10.57;2.17;;;;;;;;;;5078776;28;20209;-77
2022/01/28 06:02:53;;;;;;;18.20;3.37;;;;;;;;;;5079204;28;20292;-75
2022/01/28 06:05:20;;;;;;;18.87;3.23;;;;;;;;;;5077480;28;20553;-77
2022/01/28 06:07:49;;;;;;;7.00;2.60;;;;;;;;;;5077487;28;20668;-76
2022/01/28 06:10:17;;;;;;;12.57;2.20;;;;;;;;;;5078056;28;20237;-76
2022/01/28 06:12:47;;;;;;;11.70;3.00;;;;;;;;;;5073020;28;20808;-76
2022/01/28 06:15:15;;;;;;;21.57;3.60;;;;;;;;;;5076071;28;20656;-76
2022/01/28 06:17:42;;;;;;;8.63;2.73;;;;;;;;;;5076116;28;20268;-75
2022/01/28 06:20:10;;;;;;;7.37;2.40;;;;;;;;;;5076008;28;20251;-76
2022/01/28 06:22:39;;;;;;;9.90;2.53;;;;;;;;;;5078994;28;20237;-76
2022/01/28 06:25:08;;;;;;;12.23;2.37;;;;;;;;;;5075638;28;20230;-77
2022/01/28 06:27:35;;;;;;;9.67;2.40;;;;;;;;;;5078270;28;20302;-76
2022/01/28 06:30:04;;;;;;;14.93;2.60;;;;;;;;;;5075144;28;20219;-76
2022/01/28 06:32:31;;;;;;;8.10;2.40;;;;;;;;;;5070445;28;20298;-76
2022/01/28 06:35:00;;;;;;;9.40;2.53;;;;;;;;;;5074261;28;20309;-75
2022/01/28 06:37:27;;;;;;;14.93;2.23;;;;;;;;;;5074486;28;20285;-76
2022/01/28 06:39:54;;;;;;;19.63;3.43;;;;;;;;;;5074851;28;20298;-76
2022/01/28 06:42:23;;;;;;;17.07;3.87;;;;;;;;;;5074358;28;20202;-75
2022/01/28 06:44:50;;;;;;;13.10;3.90;;;;;;;;;;5077426;28;20587;-76
2022/01/28 06:47:17;;;;;;;16.53;4.10;;;;;;;;;;5074418;28;20204;-75
2022/01/28 06:49:44;;;;;;;22.33;4.23;;;;;;;;;;5082270;28;20210;-76
2022/01/28 06:52:11;;;;;;;22.40;4.90;;;;;;;;;;5079797;28;20243;-76
2022/01/28 06:54:38;;;;;;;16.37;4.40;;;;;;;;;;5082989;28;20228;-76
2022/01/28 06:57:06;;;;;;;30.83;5.07;;;;;;;;;;5080002;28;20503;-75
2022/01/28 06:59:34;;;;;;;16.50;4.20;;;;;;;;;;5081025;28;20671;-76
2022/01/28 07:02:01;;;;;;;19.97;4.90;;;;;;;;;;5081644;28;20669;-75
2022/01/28 07:04:34;;;;;;;21.77;4.53;;;;;;;;;;5085331;28;20228;-76
2022/01/28 07:07:02;;;;;;;20.13;4.53;;;;;;;;;;5079652;28;20228;-76
2022/01/28 07:09:29;;;;;;;20.47;4.40;;;;;;;;;;5079740;28;20233;-76
2022/01/28 07:11:56;;;;;;;21.90;4.97;;;;;;;;;;5078628;28;20562;-75
2022/01/28 07:14:23;;;;;;;23.37;5.40;;;;;;;;;;5079243;28;20221;-76
2022/01/28 07:16:52;;;;;;;22.53;5.63;;;;;;;;;;5078482;28;20214;-75
2022/01/28 07:19:19;;;;;;;18.80;5.53;;;;;;;;;;5073974;28;20668;-76
2022/01/28 07:21:46;;;;;;;26.30;5.40;;;;;;;;;;5073724;28;20216;-76
2022/01/28 07:24:13;;;;;;;16.00;4.70;;;;;;;;;;5079918;28;20271;-76
2022/01/28 07:26:40;;;;;;;21.07;5.10;;;;;;;;;;5078473;28;20218;-75
2022/01/28 07:29:09;;;;;;;22.07;4.90;;;;;;;;;;5078353;28;20209;-76
2022/01/28 07:31:38;;;;;;;17.80;5.47;;;;;;;;;;5076559;28;20675;-76
2022/01/28 07:34:07;;;;;;;21.30;5.97;;;;;;;;;;5079817;28;20229;-76
2022/01/28 07:36:34;;;;;;;15.00;4.67;;;;;;;;;;5082375;28;20676;-76
2022/01/28 07:39:01;;;;;;;22.13;5.17;;;;;;;;;;5078445;28;20615;-75
2022/01/28 07:41:28;;;;;;;17.00;4.70;;;;;;;;;;5082098;28;20565;-76
2022/01/28 07:43:55;;;;;;;18.87;4.80;;;;;;;;;;5076937;28;20735;-75
2022/01/28 07:46:23;;;;;;;16.03;4.40;;;;;;;;;;5084916;28;20788;-76
2022/01/28 07:48:50;;;;;;;14.87;4.53;;;;;;;;;;5085372;28;20637;-76
2022/01/28 07:51:19;;;;;;;18.37;4.80;;;;;;;;;;5085610;28;20202;-76
2022/01/28 07:53:46;;;;;;;22.07;4.57;;;;;;;;;;5084608;28;20244;-76
2022/01/28 07:56:14;;;;;;;13.67;4.20;;;;;;;;;;5083961;28;20675;-76
2022/01/28 07:58:41;;;;;;;9.03;4.00;;;;;;;;;;5084296;28;20201;-75
2022/01/28 08:01:09;;;;;;;19.87;4.30;;;;;;;;;;5076768;28;20198;-76
2022/01/28 08:03:36;;;;;;;15.07;4.27;;;;;;;;;;5077715;28;20225;-75
2022/01/28 08:06:03;;;;;;;17.60;4.23;;;;;;;;;;5081058;28;20264;-76
2022/01/28 08:08:32;;;;;;;13.43;4.10;;;;;;;;;;5080933;28;20223;-76
2022/01/28 08:10:59;;;;;;;18.90;4.33;;;;;;;;;;5075675;28;20296;-76
2022/01/28 08:13:26;;;;;;;17.90;4.23;;;;;;;;;;5081825;28;20794;-75
2022/01/28 08:15:53;;;;;;;12.77;4.60;;;;;;;;;;5078676;28;20206;-75
2022/01/28 08:18:20;;;;;;;17.53;4.93;;;;;;;;;;5082226;28;20230;-76
2022/01/28 08:20:48;;;;;;;22.83;4.27;;;;;;;;;;5074664;28;20332;-76
2022/01/28 08:23:15;;;;;;;19.30;4.77;;;;;;;;;;5077454;28;20230;-75
2022/01/28 08:25:43;;;;;;;23.00;4.27;;;;;;;;;;5077339;28;20222;-76
2022/01/28 08:28:10;;;;;;;28.80;5.47;;;;;;;;;;5080364;28;20197;-76
2022/01/28 08:30:39;;;;;;;15.40;4.40;;;;;;;;;;5076148;28;20668;-76
2022/01/28 08:33:07;;;;;;;22.87;5.30;;;;;;;;;;5081659;28;20271;-76
2022/01/28 08:35:37;;;;;;;19.50;4.30;;;;;;;;;;5077432;28;20206;-76
2022/01/28 08:38:12;;;;;;;15.53;4.37;;;;;;;;;;5081233;28;20270;-76
2022/01/28 08:40:40;;;;;;;14.27;4.07;;;;;;;;;;5077047;28;20299;-76
2022/01/28 08:43:08;;;;;;;22.77;4.43;;;;;;;;;;5077293;28;20939;-76
2022/01/28 08:45:36;;;;;;;24.00;4.33;;;;;;;;;;5079484;28;20214;-76
2022/01/28 08:48:03;;;;;;;17.23;4.33;;;;;;;;;;5075016;28;20667;-75
2022/01/28 08:50:31;;;;;;;19.57;5.70;;;;;;;;;;5078061;28;20712;-76
2022/01/28 08:52:58;;;;;;;24.30;7.20;;;;;;;;;;5078002;28;20606;-76
2022/01/28 08:55:25;;;;;;;27.70;7.77;;;;;;;;;;5075888;28;20437;-75
2022/01/28 08:57:53;;;;;;;21.67;6.60;;;;;;;;;;5077914;28;20197;-76
2022/01/28 09:00:23;;;;;;;15.67;5.67;;;;;;;;;;5083119;28;20254;-76
2022/01/28 09:02:51;;;;;;;15.23;4.37;;;;;;;;;;5081345;28;20202;-76
2022/01/28 09:05:18;;;;;;;21.73;4.90;;;;;;;;;;5083640;28;20198;-76
2022/01/28 09:07:48;;;;;;;19.83;3.97;;;;;;;;;;5077155;28;20293;-75
2022/01/28 09:10:19;;;;;;;15.70;4.10;;;;;;;;;;5084174;28;20585;-76
2022/01/28 09:13:10;;;;;;;20.53;3.63;;;;;;;;;;5075453;28;20293;-76
2022/01/28 09:15:40;;;;;;;16.60;3.80;;;;;;;;;;5079438;28;20198;-76
2022/01/28 09:18:09;;;;;;;14.00;3.77;;;;;;;;;;5083715;28;20225;-76
2022/01/28 09:20:37;;;;;;;22.57;4.20;;;;;;;;;;5083048;28;20233;-76
2022/01/28 09:23:04;;;;;;;11.77;3.83;;;;;;;;;;5082837;28;20224;-76
2022/01/28 09:25:33;;;;;;;15.30;4.10;;;;;;;;;;5077806;28;20732;-76
2022/01/28 09:28:05;;;;;;;11.13;3.03;;;;;;;;;;5083835;28;20214;-76
2022/01/28 09:30:32;;;;;;;9.47;3.33;;;;;;;;;;5081215;28;20206;-76
2022/01/28 09:33:01;;;;;;;10.27;3.03;;;;;;;;;;5078262;28;20233;-75
2022/01/28 09:35:28;;;;;;;14.77;2.83;;;;;;;;;;5080694;28;20255;-75
2022/01/28 09:37:56;;;;;;;12.60;3.07;;;;;;;;;;5078831;28;20213;-76
2022/01/28 09:40:23;;;;;;;12.23;3.43;;;;;;;;;;5078629;28;20477;-74
2022/01/28 09:42:52;;;;;;;12.87;3.00;;;;;;;;;;5078835;28;20228;-76
2022/01/28 09:45:23;;;;;;;17.37;3.00;;;;;;;;;;5079948;28;20222;-77
2022/01/28 09:47:53;;;;;;;10.47;2.80;;;;;;;;;;5081277;28;20265;-76
2022/01/28 09:50:22;;;;;;;18.83;3.47;;;;;;;;;;5077345;28;20688;-75
2022/01/28 09:52:49;;;;;;;8.63;2.80;;;;;;;;;;5077238;28;20224;-76
2022/01/28 09:55:17;;;;;;;16.13;2.70;;;;;;;;;;5077186;28;20197;-76
2022/01/28 09:57:45;;;;;;;11.53;2.90;;;;;;;;;;5078664;28;20216;-76
2022/01/28 10:00:13;;;;;;;16.73;3.00;;;;;;;;;;5079640;28;20279;-76
2022/01/28 10:02:50;;;;;;;16.43;2.90;;;;;;;;;;5077890;28;20210;-76
2022/01/28 10:05:19;;;;;;;11.73;2.53;;;;;;;;;;5079115;28;20209;-76
2022/01/28 10:08:01;;;;;;;16.07;2.80;;;;;;;;;;5078505;28;20228;-76
2022/01/28 10:10:28;;;;;;;16.13;2.87;;;;;;;;;;5081201;28;20193;-75
2022/01/28 10:13:10;;;;;;;15.07;2.80;;;;;;;;;;5082591;28;20243;-75
2022/01/28 10:15:37;;;;;;;12.53;2.73;;;;;;;;;;5077028;28;20623;-76
2022/01/28 10:18:05;;;;;;;12.93;3.00;;;;;;;;;;5081427;28;20579;-75
2022/01/28 10:20:32;;;;;;;13.17;2.90;;;;;;;;;;5080604;28;20208;-75
2022/01/28 10:23:02;;;;;;;24.23;3.40;;;;;;;;;;5076894;28;20225;-76
2022/01/28 10:25:32;;;;;;;15.70;3.37;;;;;;;;;;5080681;28;20267;-75
2022/01/28 10:28:03;;;;;;;10.37;3.00;;;;;;;;;;5075600;28;20279;-75
2022/01/28 10:30:31;;;;;;;16.10;3.07;;;;;;;;;;5077940;28;20289;-75
2022/01/28 10:33:11;;;;;;;24.63;3.03;;;;;;;;;;5077523;28;20230;-75
2022/01/28 10:35:39;;;;;;;17.40;3.27;;;;;;;;;;5079550;28;20651;-75
2022/01/28 10:38:07;;;;;;;18.57;3.40;;;;;;;;;;5080821;28;20204;-75
2022/01/28 10:40:35;;;;;;;16.33;3.30;;;;;;;;;;5082892;28;20198;-75
2022/01/28 10:43:02;;;;;;;18.00;3.40;;;;;;;;;;5079126;28;20712;-75
2022/01/28 10:45:31;;;;;;;20.20;3.03;;;;;;;;;;5080921;28;20205;-75
2022/01/28 10:48:02;;;;;;;12.67;2.50;;;;;;;;;;5076043;28;20249;-74
2022/01/28 10:50:29;;;;;;;12.33;2.90;;;;;;;;;;5078305;28;20292;-75
2022/01/28 10:53:00;;;;;;;17.70;3.13;;;;;;;;;;5075993;28;20749;-75
2022/01/28 10:55:30;;;;;;;20.87;3.70;;;;;;;;;;5077810;28;20207;-74
2022/01/28 10:57:58;;;;;;;17.27;3.10;;;;;;;;;;5076649;28;20256;-75
2022/01/28 11:00:28;;;;;;;13.47;2.50;;;;;;;;;;5080105;28;20217;-75
2022/01/28 11:02:55;;;;;;;14.63;2.97;;;;;;;;;;5078268;28;20232;-75
2022/01/28 11:05:23;;;;;;;14.90;2.53;;;;;;;;;;5077956;28;20198;-76
2022/01/28 11:07:50;;;;;;;21.83;2.97;;;;;;;;;;5079183;28;20676;-75
2022/01/28 11:10:17;;;;;;;17.47;3.20;;;;;;;;;;5077924;28;20234;-75
2022/01/28 11:12:46;;;;;;;20.13;3.23;;;;;;;;;;5078256;28;20202;-76
2022/01/28 11:15:14;;;;;;;16.77;2.40;;;;;;;;;;5078030;28;20814;-76
2022/01/28 11:17:41;;;;;;;17.17;2.30;;;;;;;;;;5081318;28;20198;-76
2022/01/28 11:20:09;;;;;;;18.07;2.50;;;;;;;;;;5084057;28;20201;-76
2022/01/28 11:22:52;;;;;;;15.07;2.30;;;;;;;;;;5080581;28;20202;-75
2022/01/28 11:25:36;;;;;;;16.47;2.60;;;;;;;;;;5082758;28;20672;-75
2022/01/28 11:28:09;;;;;;;14.20;2.57;;;;;;;;;;5078444;28;20676;-74
2022/01/28 11:30:36;;;;;;;13.30;2.27;;;;;;;;;;5083516;28;20521;-75
2022/01/28 11:33:06;;;;;;;12.30;1.80;;;;;;;;;;5083097;28;20217;-75
2022/01/28 11:35:38;;;;;;;14.27;1.97;;;;;;;;;;5078371;28;20562;-74
2022/01/28 11:38:23;;;;;;;13.40;2.33;;;;;;;;;;5076352;28;20214;-75
2022/01/28 11:40:52;;;;;;;15.00;2.13;;;;;;;;;;5080381;28;20659;-76
2022/01/28 11:43:24;;;;;;;10.73;2.43;;;;;;;;;;5081984;28;21267;-76
2022/01/28 11:46:06;;;;;;;10.70;1.93;;;;;;;;;;5079487;28;20289;-75
2022/01/28 11:48:48;;;;;;;19.30;2.17;;;;;;;;;;5083345;28;20761;-75
2022/01/28 11:51:16;;;;;;;14.57;2.30;;;;;;;;;;5081632;28;20198;-75
2022/01/28 11:53:54;;;;;;;18.13;2.83;;;;;;;;;;5082968;28;20233;-75
2022/01/28 11:56:22;;;;;;;20.27;3.63;;;;;;;;;;5081241;28;20202;-76
2022/01/28 11:58:54;;;;;;;16.30;2.37;;;;;;;;;;5081257;28;20579;-76
2022/01/28 12:01:25;;;;;;;25.73;3.57;;;;;;;;;;5080676;28;20209;-76
2022/01/28 12:03:52;;;;;;;12.93;2.03;;;;;;;;;;5082730;28;20228;-75
2022/01/28 12:06:19;;;;;;;15.07;2.77;;;;;;;;;;5083165;28;20198;-75
2022/01/28 12:08:47;;;;;;;18.43;3.33;;;;;;;;;;5081331;28;20212;-75
2022/01/28 12:11:15;;;;;;;16.87;2.47;;;;;;;;;;5084101;28;20217;-74
2022/01/28 12:13:50;;;;;;;20.43;2.57;;;;;;;;;;5080732;28;20221;-75
2022/01/28 12:16:29;;;;;;;13.87;2.30;;;;;;;;;;5084906;28;20205;-75
2022/01/28 12:18:57;;;;;;;15.17;2.17;;;;;;;;;;5081757;28;20213;-75
2022/01/28 12:21:26;;;;;;;20.57;2.10;;;;;;;;;;5082943;28;20208;-74
2022/01/28 12:23:54;;;;;;;16.60;2.17;;;;;;;;;;5087129;28;20354;-75
2022/01/28 12:26:22;;;;;;;19.93;2.63;;;;;;;;;;5080038;28;20212;-76
2022/01/28 12:29:04;;;;;;;13.73;2.10;;;;;;;;;;5082844;28;20291;-75
2022/01/28 12:31:33;;;;;;;13.00;2.50;;;;;;;;;;5077285;28;20213;-76
2022/01/28 12:34:02;;;;;;;24.97;2.17;;;;;;;;;;5083771;28;20225;-76
2022/01/28 12:36:31;;;;;;;11.13;1.90;;;;;;;;;;5080694;28;20640;-76
2022/01/28 12:39:20;;;;;;;19.83;2.93;;;;;;;;;;5081456;28;20764;-76
2022/01/28 12:41:55;;;;;;;14.07;2.10;;;;;;;;;;5080533;28;20660;-76
2022/01/28 12:44:22;;;;;;;18.33;2.30;;;;;;;;;;5082602;28;20236;-74
2022/01/28 12:47:01;;;;;;;16.90;2.40;;;;;;;;;;5082355;28;20312;-74
2022/01/28 12:49:29;;;;;;;12.17;1.60;;;;;;;;;;5082246;28;20296;-75
2022/01/28 12:51:57;;;;;;;16.63;2.37;;;;;;;;;;5079298;28;20579;-75
2022/01/28 12:54:32;;;;;;;11.37;2.27;;;;;;;;;;5084115;28;20240;-76
2022/01/28 12:56:59;;;;;;;13.23;2.27;;;;;;;;;;5083502;28;20234;-77
2022/01/28 12:59:26;;;;;;;10.97;1.80;;;;;;;;;;5083874;28;20206;-76
2022/01/28 13:01:53;;;;;;;21.50;5.10;;;;;;;;;;5083902;28;20206;-77
2022/01/28 13:04:25;;;;;;;17.63;2.20;;;;;;;;;;5084749;28;20564;-76
2022/01/28 13:08:24;;;;;;;12.80;2.07;;;;;;;;;;5080513;28;20316;-77
2022/01/28 13:09:49;;;;;;;12.47;2.30;;;;;;;;;;5084085;28;20208;-76
2022/01/28 13:12:21;;;;;;;11.37;2.10;;;;;;;;;;5082911;28;20581;-76
2022/01/28 13:14:49;;;;;;;19.03;2.23;;;;;;;;;;5080568;28;20230;-76
2022/01/28 13:17:19;;;;;;;13.37;2.67;;;;;;;;;;5084514;28;20244;-77
2022/01/28 13:19:55;;;;;;;15.30;2.20;;;;;;;;;;5081437;28;20194;-76
2022/01/28 13:22:23;;;;;;;10.23;2.50;;;;;;;;;;5086361;28;20291;-75
2022/01/28 13:24:52;;;;;;;11.90;2.50;;;;;;;;;;5080959;28;20231;-76
2022/01/28 13:27:19;;;;;;;13.17;2.37;;;;;;;;;;5078265;28;20222;-77
2022/01/28 13:29:49;;;;;;;26.83;3.40;;;;;;;;;;5085193;28;20254;-76
2022/01/28 13:32:19;;;;;;;23.67;2.70;;;;;;;;;;5084673;28;20678;-77
2022/01/28 13:34:48;;;;;;;17.70;3.70;;;;;;;;;;5079166;28;20225;-77
2022/01/28 13:37:31;;;;;;;16.43;5.27;;;;;;;;;;5082386;28;20225;-77
2022/01/28 13:40:00;;;;;;;21.03;3.13;;;;;;;;;;5079605;28;20206;-77
2022/01/28 13:42:30;;;;;;;12.63;2.50;;;;;;;;;;5119713;22;20250;-84
2022/01/28 13:45:03;;;;;;;18.23;2.43;;;;;;;;;;5035098;28;20203;-84
2022/01/28 13:47:45;;;;;;;19.83;4.10;;;;;;;;;;5037709;28;20219;-84
2022/01/28 13:50:12;;;;;;;14.67;3.97;;;;;;;;;;5030830;28;20472;-84
2022/01/28 13:52:49;;;;;;;15.73;1.90;;;;;;;;;;5031530;28;20195;-83
2022/01/28 13:55:34;;;;;;;16.40;5.03;;;;;;;;;;5045803;22;20233;-76
2022/01/28 13:58:02;;;;;;;17.40;4.13;;;;;;;;;;5030427;28;20295;-76
2022/01/28 14:00:36;;;;;;;26.20;5.03;;;;;;;;;;5031078;28;20208;-77
2022/01/28 14:03:03;;;;;;;17.33;3.10;;;;;;;;;;5027003;28;20224;-76
2022/01/28 14:05:45;;;;;;;14.60;3.13;;;;;;;;;;5034215;28;20289;-76
2022/01/28 14:08:12;;;;;;;17.50;3.00;;;;;;;;;;5031344;28;20319;-77
2022/01/28 14:10:41;;;;;;;14.43;2.53;;;;;;;;;;5025959;28;20200;-77
2022/01/28 14:13:22;;;;;;;23.77;4.47;;;;;;;;;;5023994;28;21674;-76
2022/01/28 14:16:03;;;;;;;28.53;9.53;;;;;;;;;;5020871;28;20200;-76
2022/01/28 14:18:31;;;;;;;19.80;2.63;;;;;;;;;;5028988;28;20214;-77
2022/01/28 14:20:58;;;;;;;11.90;2.67;;;;;;;;;;5030858;28;20203;-77
2022/01/28 14:23:25;;;;;;;18.90;10.93;;;;;;;;;;5027046;28;20241;-76
2022/01/28 14:25:54;;;;;;;13.93;3.93;;;;;;;;;;5034120;28;20199;-77
2022/01/28 14:28:39;;;;;;;19.03;3.00;;;;;;;;;;5032550;28;20223;-76
2022/01/28 14:31:08;;;;;;;21.13;5.53;;;;;;;;;;5033970;28;20290;-76
2022/01/28 14:33:36;;;;;;;18.27;4.03;;;;;;;;;;5032449;28;20226;-76
2022/01/28 14:36:03;;;;;;;33.90;12.60;;;;;;;;;;5025867;28;20798;-76
2022/01/28 14:38:30;;;;;;;21.10;4.17;;;;;;;;;;5026111;28;20203;-76
2022/01/28 14:40:59;;;;;;;21.33;5.70;;;;;;;;;;5028659;28;20637;-77
2022/01/28 14:43:26;;;;;;;19.13;3.67;;;;;;;;;;5030545;28;20318;-77
2022/01/28 14:45:53;;;;;;;15.87;4.70;;;;;;;;;;5035257;28;20202;-77
2022/01/28 14:48:22;;;;;;;18.33;4.07;;;;;;;;;;5030054;28;20237;-77
2022/01/28 14:50:49;;;;;;;13.80;2.90;;;;;;;;;;5034374;28;20210;-76
2022/01/28 14:53:16;;;;;;;19.10;3.70;;;;;;;;;;5032830;28;20225;-76
2022/01/28 14:55:44;;;;;;;12.30;2.70;;;;;;;;;;5036072;28;20313;-77
2022/01/28 14:58:12;;;;;;;15.70;2.77;;;;;;;;;;5034272;28;20994;-77
2022/01/28 15:00:39;;;;;;;23.77;3.80;;;;;;;;;;5032894;28;20903;-77
2022/01/28 15:03:09;;;;;;;16.73;3.07;;;;;;;;;;5034016;28;20249;-77
2022/01/28 15:05:37;;;;;;;18.27;3.60;;;;;;;;;;5035619;28;20316;-76
2022/01/28 15:08:08;;;;;;;20.70;3.77;;;;;;;;;;5034026;28;20843;-77
2022/01/28 15:10:35;;;;;;;18.77;4.13;;;;;;;;;;5035340;28;20206;-76
2022/01/28 15:13:02;;;;;;;19.97;2.60;;;;;;;;;;5038869;28;20309;-77
2022/01/28 15:15:31;;;;;;;16.80;2.93;;;;;;;;;;5034079;28;20560;-77
2022/01/28 15:17:58;;;;;;;16.10;3.10;;;;;;;;;;5040712;28;20835;-77
2022/01/28 15:20:28;;;;;;;17.40;3.37;;;;;;;;;;5036289;28;20278;-77
2022/01/28 15:22:55;;;;;;;19.00;2.93;;;;;;;;;;5035271;28;20218;-78
2022/01/28 15:25:22;;;;;;;13.60;3.00;;;;;;;;;;5038593;28;20210;-78
2022/01/28 15:27:50;;;;;;;15.67;3.03;;;;;;;;;;5037277;28;20226;-77
2022/01/28 15:30:28;;;;;;;20.30;3.37;;;;;;;;;;5033343;28;20207;-76
2022/01/28 15:38:24;;;;;;;17.43;3.70;;;;;;;;;;5033102;28;20321;-77
2022/01/28 15:40:51;;;;;;;13.53;3.40;;;;;;;;;;5033849;28;20229;-77
2022/01/28 15:43:20;;;;;;;20.63;3.37;;;;;;;;;;5036174;28;20314;-77
2022/01/28 15:45:48;;;;;;;14.13;3.73;;;;;;;;;;5032273;28;20212;-77
2022/01/28 15:48:18;;;;;;;18.53;3.60;;;;;;;;;;5034840;28;20260;-77